North Highland, New York
Current Conditions -  °F | °C
As of 10:45 AM on Tuesday 21 Oct 2014 (Local Time) from KSWF Reporting Station
Overcast Overcast  
Wind Chill: 52°   Ceiling: 5500
Heat Index: 52°   Visibility: 10mi
Dew Point: 50°   Wind: 0mph
Humidity: 94%   Direction: NA
Pressure: 29.92"   Gusts: NA
Location:  41.4593°N, 73.8985°W
Report Text: KSWF 211445Z 00000KT 10SM SCT030 OVC055 11/10 A2992
Loading
Personal Weather Stations






























Interactive Weather Map
Tropical Storm Tracking
New forecast layout! Learn more

10-Day Weather Forecast

Advertisements
Track Severe Weather on mobile